sensor_id;sensor_type;location;lat;lon;timestamp;pressure;altitude;pressure_sealevel;temperature;humidity
67931;BME280;63902;52.000;5.954;2023-03-07T06:20:54;99241.28;;;2.27;100.00
67931;BME280;63902;52.000;5.954;2023-03-07T06:23:05;99229.50;;;2.14;100.00
67931;BME280;63902;52.000;5.954;2023-03-07T06:24:06;99240.66;;;2.19;100.00
67931;BME280;63902;52.000;5.954;2023-03-07T06:25:08;99245.06;;;2.17;100.00
67931;BME280;63902;52.000;5.954;2023-03-07T06:26:09;99250.34;;;2.15;100.00
67931;BME280;63902;52.000;5.954;2023-03-07T06:27:10;99250.78;;;2.01;100.00
67931;BME280;63902;52.000;5.954;2023-03-07T06:28:11;99252.59;;;1.99;100.00
67931;BME280;63902;52.000;5.954;2023-03-07T06:29:11;99234.03;;;1.79;100.00
67931;BME280;63902;52.000;5.954;2023-03-07T06:30:12;99244.47;;;1.81;100.00
67931;BME280;63902;52.000;5.954;2023-03-07T06:31:14;99253.34;;;1.75;100.00
67931;BME280;63902;52.000;5.954;2023-03-07T07:07:20;99271.38;;;0.92;100.00
67931;BME280;63902;52.000;5.954;2023-03-07T07:08:20;99277.41;;;0.94;100.00
67931;BME280;63902;52.000;5.954;2023-03-07T07:09:21;99259.41;;;0.85;100.00
67931;BME280;63902;52.000;5.954;2023-03-07T07:10:21;99278.25;;;0.96;100.00
67931;BME280;63902;52.000;5.954;2023-03-07T07:11:22;99284.34;;;0.95;100.00
67931;BME280;63902;52.000;5.954;2023-03-07T07:12:23;99283.50;;;0.95;100.00
67931;BME280;63902;52.000;5.954;2023-03-07T07:13:23;99284.41;;;0.94;100.00
67931;BME280;63902;52.000;5.954;2023-03-07T07:14:24;99280.13;;;0.91;100.00
67931;BME280;63902;52.000;5.954;2023-03-07T07:15:24;99282.81;;;0.88;100.00
67931;BME280;63902;52.000;5.954;2023-03-07T07:16:25;99286.19;;;0.92;100.00
67931;BME280;63902;52.000;5.954;2023-03-07T07:17:25;99292.16;;;0.95;100.00
67931;BME280;63902;52.000;5.954;2023-03-07T07:18:26;99277.63;;;0.86;100.00
67931;BME280;63902;52.000;5.954;2023-03-07T07:19:26;99282.63;;;0.96;100.00
67931;BME280;63902;52.000;5.954;2023-03-07T07:20:27;99283.63;;;0.90;100.00
67931;BME280;63902;52.000;5.954;2023-03-07T07:21:27;99287.84;;;0.94;100.00
67931;BME280;63902;52.000;5.954;2023-03-07T07:22:29;99289.66;;;0.92;100.00
67931;BME280;63902;52.000;5.954;2023-03-07T07:23:30;99271.72;;;0.80;100.00
67931;BME280;63902;52.000;5.954;2023-03-07T07:24:30;99278.53;;;0.84;100.00
67931;BME280;63902;52.000;5.954;2023-03-07T07:25:32;99285.59;;;0.82;100.00
67931;BME280;63902;52.000;5.954;2023-03-07T07:26:32;99268.34;;;0.75;100.00
67931;BME280;63902;52.000;5.954;2023-03-07T07:27:33;99270.94;;;0.76;100.00
67931;BME280;63902;52.000;5.954;2023-03-07T07:28:33;99246.91;;;0.63;100.00
67931;BME280;63902;52.000;5.954;2023-03-07T07:29:34;99262.25;;;0.76;100.00
67931;BME280;63902;52.000;5.954;2023-03-07T07:30:34;99283.72;;;0.87;100.00
67931;BME280;63902;52.000;5.954;2023-03-07T07:31:35;99282.13;;;0.81;100.00
67931;BME280;63902;52.000;5.954;2023-03-07T07:32:36;99267.50;;;0.74;100.00
67931;BME280;63902;52.000;5.954;2023-03-07T07:33:36;99258.94;;;0.69;100.00
67931;BME280;63902;52.000;5.954;2023-03-07T07:34:37;99273.63;;;0.73;100.00
67931;BME280;63902;52.000;5.954;2023-03-07T07:35:37;99277.03;;;0.75;100.00
67931;BME280;63902;52.000;5.954;2023-03-07T07:36:38;99270.22;;;0.70;100.00
67931;BME280;63902;52.000;5.954;2023-03-07T07:37:39;99281.53;;;0.70;100.00
67931;BME280;63902;52.000;5.954;2023-03-07T07:38:40;99278.88;;;0.72;100.00
67931;BME280;63902;52.000;5.954;2023-03-07T07:39:40;99272.81;;;0.71;100.00
67931;BME280;63902;52.000;5.954;2023-03-07T07:40:41;99266.06;;;0.62;100.00
67931;BME280;63902;52.000;5.954;2023-03-07T07:41:42;99269.53;;;0.63;100.00
67931;BME280;63902;52.000;5.954;2023-03-07T07:42:42;99278.88;;;0.72;100.00
67931;BME280;63902;52.000;5.954;2023-03-07T07:43:43;99269.47;;;0.66;100.00
67931;BME280;63902;52.000;5.954;2023-03-07T07:44:44;99278.22;;;0.63;100.00
67931;BME280;63902;52.000;5.954;2023-03-07T07:45:45;99275.59;;;0.65;100.00
67931;BME280;63902;52.000;5.954;2023-03-07T07:46:45;99280.66;;;0.70;100.00
67931;BME280;63902;52.000;5.954;2023-03-07T07:47:46;99282.47;;;0.68;100.00
67931;BME280;63902;52.000;5.954;2023-03-07T07:48:47;99280.66;;;0.70;100.00
67931;BME280;63902;52.000;5.954;2023-03-07T07:49:47;99275.53;;;0.66;100.00
67931;BME280;63902;52.000;5.954;2023-03-07T07:50:48;99281.50;;;0.72;100.00
67931;BME280;63902;52.000;5.954;2023-03-07T07:51:48;99263.56;;;0.59;100.00
67931;BME280;63902;52.000;5.954;2023-03-07T07:52:51;99284.06;;;0.73;100.00
67931;BME280;63902;52.000;5.954;2023-03-07T07:53:52;99259.19;;;0.60;100.00
67931;BME280;63902;52.000;5.954;2023-03-07T07:54:52;99283.09;;;0.77;100.00
67931;BME280;63902;52.000;5.954;2023-03-07T07:55:53;99270.31;;;0.66;100.00
67931;BME280;63902;52.000;5.954;2023-03-07T07:56:53;99289.38;;;0.70;100.00
67931;BME280;63902;52.000;5.954;2023-03-07T07:57:54;99251.63;;;0.49;100.00
67931;BME280;63902;52.000;5.954;2023-03-07T07:58:54;99260.09;;;0.59;100.00
67931;BME280;63902;52.000;5.954;2023-03-07T07:59:55;99267.03;;;0.58;100.00
67931;BME280;63902;52.000;5.954;2023-03-07T08:00:55;99284.03;;;0.75;100.00
67931;BME280;63902;52.000;5.954;2023-03-07T08:01:56;99284.09;;;0.72;100.00
67931;BME280;63902;52.000;5.954;2023-03-07T08:02:57;99289.16;;;0.78;100.00
67931;BME280;63902;52.000;5.954;2023-03-07T08:03:58;99254.03;;;0.57;100.00
67931;BME280;63902;52.000;5.954;2023-03-07T08:04:58;99288.19;;;0.82;100.00
67931;BME280;63902;52.000;5.954;2023-03-07T08:05:59;99288.19;;;0.82;100.00
67931;BME280;63902;52.000;5.954;2023-03-07T08:06:59;99266.81;;;0.68;100.00
67931;BME280;63902;52.000;5.954;2023-03-07T08:08:01;99296.78;;;0.87;100.00
67931;BME280;63902;52.000;5.954;2023-03-07T08:09:02;99262.41;;;0.70;100.00
67931;BME280;63902;52.000;5.954;2023-03-07T08:10:04;99301.03;;;0.89;100.00
67931;BME280;63902;52.000;5.954;2023-03-07T08:11:05;99304.53;;;0.88;100.00
67931;BME280;63902;52.000;5.954;2023-03-07T08:12:08;99294.22;;;0.84;100.00
67931;BME280;63902;52.000;5.954;2023-03-07T08:13:11;99305.44;;;0.87;100.00
67931;BME280;63902;52.000;5.954;2023-03-07T08:14:11;99304.50;;;0.90;100.00
67931;BME280;63902;52.000;5.954;2023-03-07T08:15:12;99312.38;;;0.88;100.00
67931;BME280;63902;52.000;5.954;2023-03-07T08:16:14;99309.81;;;0.87;100.00
67931;BME280;63902;52.000;5.954;2023-03-07T08:17:15;99311.69;;;0.82;100.00
67931;BME280;63902;52.000;5.954;2023-03-07T08:18:16;99312.69;;;0.76;100.00
67931;BME280;63902;52.000;5.954;2023-03-07T08:19:16;99310.97;;;0.75;100.00
67931;BME280;63902;52.000;5.954;2023-03-07T08:20:17;99310.19;;;0.72;100.00
67931;BME280;63902;52.000;5.954;2023-03-07T08:21:18;99315.34;;;0.75;100.00
67931;BME280;63902;52.000;5.954;2023-03-07T08:22:19;99314.47;;;0.76;100.00
67931;BME280;63902;52.000;5.954;2023-03-07T08:23:20;99313.56;;;0.75;100.00
67931;BME280;63902;52.000;5.954;2023-03-07T08:24:21;99290.38;;;0.64;100.00
67931;BME280;63902;52.000;5.954;2023-03-07T08:25:22;99308.34;;;0.75;100.00
67931;BME280;63902;52.000;5.954;2023-03-07T08:26:23;99304.97;;;0.72;100.00
67931;BME280;63902;52.000;5.954;2023-03-07T08:27:24;99313.47;;;0.80;100.00
67931;BME280;63902;52.000;5.954;2023-03-07T08:28:24;99310.84;;;0.81;100.00
67931;BME280;63902;52.000;5.954;2023-03-07T08:29:25;99301.47;;;0.73;100.00
67931;BME280;63902;52.000;5.954;2023-03-07T08:30:27;99308.28;;;0.78;100.00
67931;BME280;63902;52.000;5.954;2023-03-07T08:31:28;99299.06;;;0.65;100.00
67931;BME280;63902;52.000;5.954;2023-03-07T08:32:28;99284.44;;;0.59;100.00
67931;BME280;63902;52.000;5.954;2023-03-07T08:33:29;99320.63;;;0.72;100.00
67931;BME280;63902;52.000;5.954;2023-03-07T08:34:31;99311.97;;;0.70;100.00
67931;BME280;63902;52.000;5.954;2023-03-07T08:35:32;99319.72;;;0.73;100.00
67931;BME280;63902;52.000;5.954;2023-03-07T08:36:32;99300.88;;;0.61;100.00
67931;BME280;63902;52.000;5.954;2023-03-07T08:37:33;99319.72;;;0.73;100.00
67931;BME280;63902;52.000;5.954;2023-03-07T08:38:35;99318.84;;;0.74;100.00
67931;BME280;63902;52.000;5.954;2023-03-07T08:39:35;99317.94;;;0.75;100.00
67931;BME280;63902;52.000;5.954;2023-03-07T08:40:36;99317.00;;;0.77;100.00
67931;BME280;63902;52.000;5.954;2023-03-07T08:41:37;99306.69;;;0.73;100.00
67931;BME280;63902;52.000;5.954;2023-03-07T08:42:37;99318.69;;;0.80;100.00
67931;BME280;63902;52.000;5.954;2023-03-07T08:43:38;99317.75;;;0.82;100.00
67931;BME280;63902;52.000;5.954;2023-03-07T08:44:38;99317.88;;;0.78;100.00
67931;BME280;63902;52.000;5.954;2023-03-07T08:45:39;99305.06;;;0.69;100.00
67931;BME280;63902;52.000;5.954;2023-03-07T08:46:39;99318.78;;;0.77;100.00
67931;BME280;63902;52.000;5.954;2023-03-07T08:47:40;99317.13;;;0.73;100.00
67931;BME280;63902;52.000;5.954;2023-03-07T08:48:41;99304.31;;;0.63;100.00
67931;BME280;63902;52.000;5.954;2023-03-07T08:49:41;99319.69;;;0.76;100.00
67931;BME280;63902;52.000;5.954;2023-03-07T08:50:42;99306.84;;;0.66;100.00
67931;BME280;63902;52.000;5.954;2023-03-07T08:51:42;99318.03;;;0.72;100.00
67931;BME280;63902;52.000;5.954;2023-03-07T08:52:42;99317.13;;;0.73;100.00
67931;BME280;63902;52.000;5.954;2023-03-07T08:53:44;99317.91;;;0.76;100.00
67931;BME280;63902;52.000;5.954;2023-03-07T08:54:45;99316.91;;;0.82;100.00
67931;BME280;63902;52.000;5.954;2023-03-07T08:55:46;99310.69;;;0.86;100.00
67931;BME280;63902;52.000;5.954;2023-03-07T08:56:47;99317.50;;;0.92;100.00
67931;BME280;63902;52.000;5.954;2023-03-07T08:57:47;99318.44;;;0.89;100.00
67931;BME280;63902;52.000;5.954;2023-03-07T08:58:51;99312.28;;;0.92;100.00
67931;BME280;63902;52.000;5.954;2023-03-07T08:59:51;99315.72;;;0.94;100.00
67931;BME280;63902;52.000;5.954;2023-03-07T09:00:52;99320.88;;;0.95;100.00
67931;BME280;63902;52.000;5.954;2023-03-07T09:01:54;99309.66;;;0.93;100.00
67931;BME280;63902;52.000;5.954;2023-03-07T09:02:54;99276.25;;;0.73;100.00
67931;BME280;63902;52.000;5.954;2023-03-07T09:03:55;99317.31;;;0.99;100.00
67931;BME280;63902;52.000;5.954;2023-03-07T09:04:56;99309.56;;;0.96;100.00
67931;BME280;63902;52.000;5.954;2023-03-07T09:05:57;99310.44;;;0.95;100.00
67931;BME280;63902;52.000;5.954;2023-03-07T09:06:57;99313.88;;;0.97;100.00
67931;BME280;63902;52.000;5.954;2023-03-07T09:07:58;99313.06;;;0.95;100.00
67931;BME280;63902;52.000;5.954;2023-03-07T09:09:00;99319.94;;;0.99;100.00
67931;BME280;63902;52.000;5.954;2023-03-07T09:10:00;99319.97;;;0.98;100.00
67931;BME280;63902;52.000;5.954;2023-03-07T09:11:01;99309.66;;;0.93;100.00
67931;BME280;63902;52.000;5.954;2023-03-07T09:12:02;99307.03;;;0.93;100.00
67931;BME280;63902;52.000;5.954;2023-03-07T09:13:02;99312.91;;;1.01;100.00
67931;BME280;63902;52.000;5.954;2023-03-07T09:14:03;99313.69;;;1.05;100.00
67931;BME280;63902;52.000;5.954;2023-03-07T09:15:04;99324.03;;;1.08;100.00
67931;BME280;63902;52.000;5.954;2023-03-07T09:16:06;99316.13;;;1.11;100.00
67931;BME280;63902;52.000;5.954;2023-03-07T09:17:06;99321.31;;;1.13;100.00
67931;BME280;63902;52.000;5.954;2023-03-07T09:18:07;99313.56;;;1.09;100.00
67931;BME280;63902;52.000;5.954;2023-03-07T09:19:08;99310.13;;;1.07;100.00
67931;BME280;63902;52.000;5.954;2023-03-07T09:20:10;99305.97;;;1.00;100.00
67931;BME280;63902;52.000;5.954;2023-03-07T09:21:10;99313.78;;;1.02;100.00
67931;BME280;63902;52.000;5.954;2023-03-07T09:22:11;99290.53;;;0.93;100.00
67931;BME280;63902;52.000;5.954;2023-03-07T09:23:11;99308.47;;;1.05;100.00
67931;BME280;63902;52.000;5.954;2023-03-07T09:24:13;99309.16;;;1.11;100.00
67931;BME280;63902;52.000;5.954;2023-03-07T09:25:14;99314.38;;;1.11;100.00
67931;BME280;63902;52.000;5.954;2023-03-07T09:26:14;99313.31;;;1.19;100.00
67931;BME280;63902;52.000;5.954;2023-03-07T09:27:15;99277.41;;;0.96;100.00
67931;BME280;63902;52.000;5.954;2023-03-07T09:28:15;99313.16;;;1.25;100.00
67931;BME280;63902;52.000;5.954;2023-03-07T09:29:16;99298.78;;;1.08;100.00
67931;BME280;63902;52.000;5.954;2023-03-07T09:30:17;99313.44;;;1.14;100.00
67931;BME280;63902;52.000;5.954;2023-03-07T09:31:17;99276.75;;;0.86;100.00
67931;BME280;63902;52.000;5.954;2023-03-07T09:32:18;99316.13;;;1.11;100.00
67931;BME280;63902;52.000;5.954;2023-03-07T09:33:18;99311.84;;;1.08;100.00
67931;BME280;63902;52.000;5.954;2023-03-07T09:34:19;99317.03;;;1.10;100.00
67931;BME280;63902;52.000;5.954;2023-03-07T09:35:19;99313.44;;;1.14;100.00
67931;BME280;63902;52.000;5.954;2023-03-07T09:36:20;99314.28;;;1.15;100.00
67931;BME280;63902;52.000;5.954;2023-03-07T09:37:21;99321.25;;;1.16;100.00
67931;BME280;63902;52.000;5.954;2023-03-07T09:38:21;99322.19;;;1.11;100.00
67931;BME280;63902;52.000;5.954;2023-03-07T09:39:23;99313.63;;;1.06;100.00
67931;BME280;63902;52.000;5.954;2023-03-07T09:40:25;99320.44;;;1.12;100.00
67931;BME280;63902;52.000;5.954;2023-03-07T09:41:40;99322.19;;;1.11;100.00
67931;BME280;63902;52.000;5.954;2023-03-07T09:42:48;99322.28;;;1.08;100.00
67931;BME280;63902;52.000;5.954;2023-03-07T09:43:57;99316.25;;;1.06;100.00
67931;BME280;63902;52.000;5.954;2023-03-07T09:45:19;99308.38;;;1.08;100.00
67931;BME280;63902;52.000;5.954;2023-03-07T09:46:29;99297.84;;;1.11;100.00
67931;BME280;63902;52.000;5.954;2023-03-07T09:47:42;99308.84;;;1.24;100.00
67931;BME280;63902;52.000;5.954;2023-03-07T09:49:00;99308.91;;;1.21;100.00
67931;BME280;63902;52.000;5.954;2023-03-07T09:50:10;99290.00;;;1.13;100.00
67931;BME280;63902;52.000;5.954;2023-03-07T09:51:14;99307.97;;;1.23;100.00
67931;BME280;63902;52.000;5.954;2023-03-07T09:52:18;99308.66;;;1.30;100.00
67931;BME280;63902;52.000;5.954;2023-03-07T09:53:23;99317.25;;;1.33;100.00
67931;BME280;63902;52.000;5.954;2023-03-07T09:54:38;99295.72;;;1.25;100.00
67931;BME280;63902;52.000;5.954;2023-03-07T09:55:40;99314.66;;;1.33;100.00
67931;BME280;63902;52.000;5.954;2023-03-07T09:56:45;99311.31;;;1.28;100.00
67931;BME280;63902;52.000;5.954;2023-03-07T09:57:47;99313.97;;;1.27;100.00
67931;BME280;63902;52.000;5.954;2023-03-07T09:58:52;99316.41;;;1.33;100.00
67931;BME280;63902;52.000;5.954;2023-03-07T09:59:55;99313.63;;;1.39;100.00
67931;BME280;63902;52.000;5.954;2023-03-07T10:00:59;99323.00;;;1.46;100.00
67931;BME280;63902;52.000;5.954;2023-03-07T10:02:03;99329.81;;;1.52;100.00
67931;BME280;63902;52.000;5.954;2023-03-07T10:03:12;99298.78;;;1.40;100.00
67931;BME280;63902;52.000;5.954;2023-03-07T10:04:20;99313.44;;;1.45;100.00
67931;BME280;63902;52.000;5.954;2023-03-07T10:05:28;99325.34;;;1.55;100.00
67931;BME280;63902;52.000;5.954;2023-03-07T10:06:33;99318.53;;;1.51;100.00
67931;BME280;63902;52.000;5.954;2023-03-07T10:07:36;99320.22;;;1.52;100.00
67931;BME280;63902;52.000;5.954;2023-03-07T10:08:37;99320.13;;;1.55;100.00
67931;BME280;63902;52.000;5.954;2023-03-07T10:09:39;99323.56;;;1.58;100.00
67931;BME280;63902;52.000;5.954;2023-03-07T10:10:41;99315.97;;;1.48;100.00
67931;BME280;63902;52.000;5.954;2023-03-07T10:12:02;99321.06;;;1.53;100.00
67931;BME280;63902;52.000;5.954;2023-03-07T10:13:16;99304.84;;;1.42;100.00
67931;BME280;63902;52.000;5.954;2023-03-07T10:14:31;99321.84;;;1.56;100.00
67931;BME280;63902;52.000;5.954;2023-03-07T10:15:42;99320.88;;;1.59;100.00
67931;BME280;63902;52.000;5.954;2023-03-07T10:16:48;99314.72;;;1.62;100.00
67931;BME280;63902;52.000;5.954;2023-03-07T10:18:06;99322.53;;;1.63;100.00
67931;BME280;63902;52.000;5.954;2023-03-07T10:19:14;99312.16;;;1.60;100.00
67931;BME280;63902;52.000;5.954;2023-03-07T10:20:22;99315.66;;;1.59;100.00
67931;BME280;63902;52.000;5.954;2023-03-07T10:21:28;99320.97;;;1.56;100.00
67931;BME280;63902;52.000;5.954;2023-03-07T10:22:36;99320.09;;;1.57;100.00
67931;BME280;63902;52.000;5.954;2023-03-07T10:24:00;99315.63;;;1.61;100.00
67931;BME280;63902;52.000;5.954;2023-03-07T10:25:14;99313.06;;;1.59;100.00
67931;BME280;63902;52.000;5.954;2023-03-07T10:26:21;99319.84;;;1.65;100.00
67931;BME280;63902;52.000;5.954;2023-03-07T10:27:26;99310.44;;;1.59;100.00
67931;BME280;63902;52.000;5.954;2023-03-07T10:28:30;99310.25;;;1.65;100.00
67931;BME280;63902;52.000;5.954;2023-03-07T10:29:35;99323.91;;;1.76;100.00
67931;BME280;63902;52.000;5.954;2023-03-07T10:30:37;99307.44;;;1.73;100.00
67931;BME280;63902;52.000;5.954;2023-03-07T10:31:40;99321.09;;;1.83;100.00
67931;BME280;63902;52.000;5.954;2023-03-07T10:32:43;99325.28;;;1.88;100.00
67931;BME280;63902;52.000;5.954;2023-03-07T10:33:46;99315.56;;;1.93;100.00
67931;BME280;63902;52.000;5.954;2023-03-07T10:34:52;99318.41;;;1.84;100.00
67931;BME280;63902;52.000;5.954;2023-03-07T10:35:58;99321.09;;;1.83;100.00
67931;BME280;63902;52.000;5.954;2023-03-07T10:37:07;99324.44;;;1.88;100.00
67931;BME280;63902;52.000;5.954;2023-03-07T10:38:18;99324.28;;;1.92;100.00
67931;BME280;63902;52.000;5.954;2023-03-07T10:39:24;99326.91;;;1.92;100.00
67931;BME280;63902;52.000;5.954;2023-03-07T10:40:30;99306.34;;;1.80;100.00
67931;BME280;63902;52.000;5.954;2023-03-07T10:41:33;99300.13;;;1.84;100.00
67931;BME280;63902;52.000;5.954;2023-03-07T10:42:34;99324.09;;;1.98;100.00
67931;BME280;63902;52.000;5.954;2023-03-07T10:43:36;99322.53;;;1.93;100.00
67931;BME280;63902;52.000;5.954;2023-03-07T10:44:36;99270.47;;;1.57;100.00
67931;BME280;63902;52.000;5.954;2023-03-07T10:45:37;99327.91;;;1.88;100.00
67931;BME280;63902;52.000;5.954;2023-03-07T10:46:37;99306.56;;;1.72;100.00
67931;BME280;63902;52.000;5.954;2023-03-07T10:47:39;99323.66;;;1.84;100.00
67931;BME280;63902;52.000;5.954;2023-03-07T10:48:43;99326.16;;;1.87;100.00
67931;BME280;63902;52.000;5.954;2023-03-07T10:49:45;99320.94;;;1.87;100.00
67931;BME280;63902;52.000;5.954;2023-03-07T10:50:51;99327.81;;;1.91;100.00
67931;BME280;63902;52.000;5.954;2023-03-07T10:51:57;99322.34;;;1.99;100.00
67931;BME280;63902;52.000;5.954;2023-03-07T10:53:02;99290.38;;;1.89;100.00
67931;BME280;63902;52.000;5.954;2023-03-07T10:54:10;99316.13;;;2.03;100.00
67931;BME280;63902;52.000;5.954;2023-03-07T10:55:34;99318.59;;;2.08;100.00
67931;BME280;63902;52.000;5.954;2023-03-07T10:56:35;99323.88;;;2.06;100.00
67931;BME280;63902;52.000;5.954;2023-03-07T10:57:36;99304.81;;;2.03;100.00
67931;BME280;63902;52.000;5.954;2023-03-07T10:58:36;99321.84;;;2.16;100.00
67931;BME280;63902;52.000;5.954;2023-03-07T10:59:39;99315.16;;;2.06;100.00
67931;BME280;63902;52.000;5.954;2023-03-07T11:00:40;99308.25;;;2.05;100.00
67931;BME280;63902;52.000;5.954;2023-03-07T11:01:53;99327.94;;;2.16;100.00
67931;BME280;63902;52.000;5.954;2023-03-07T11:02:55;99322.69;;;2.16;100.00
67931;BME280;63902;52.000;5.954;2023-03-07T11:03:58;99319.91;;;2.21;100.00
67931;BME280;63902;52.000;5.954;2023-03-07T11:05:00;99319.97;;;2.19;100.00
67931;BME280;63902;52.000;5.954;2023-03-07T11:06:00;99321.75;;;2.19;100.00
67931;BME280;63902;52.000;5.954;2023-03-07T11:07:01;99308.81;;;2.14;100.00
67931;BME280;63902;52.000;5.954;2023-03-07T11:08:20;99319.88;;;2.22;100.00
67931;BME280;63902;52.000;5.954;2023-03-07T11:09:24;99325.03;;;2.24;100.00
67931;BME280;63902;52.000;5.954;2023-03-07T11:10:34;99334.63;;;2.25;100.00
67931;BME280;63902;52.000;5.954;2023-03-07T11:11:35;99304.47;;;2.13;100.00
67931;BME280;63902;52.000;5.954;2023-03-07T11:12:44;99318.78;;;2.30;100.00
67931;BME280;63902;52.000;5.954;2023-03-07T11:14:03;99323.88;;;2.34;100.00
67931;BME280;63902;52.000;5.954;2023-03-07T11:15:14;99318.84;;;2.28;100.00
67931;BME280;63902;52.000;5.954;2023-03-07T11:16:19;99316.09;;;2.33;100.00
67931;BME280;63902;52.000;5.954;2023-03-07T11:17:21;99322.88;;;2.38;100.00
67931;BME280;63902;52.000;5.954;2023-03-07T11:18:28;99315.78;;;2.42;100.00
67931;BME280;63902;52.000;5.954;2023-03-07T11:19:32;99325.34;;;2.43;100.00
67931;BME280;63902;52.000;5.954;2023-03-07T11:20:46;99323.44;;;2.48;100.00
67931;BME280;63902;52.000;5.954;2023-03-07T11:21:52;99327.59;;;2.54;100.00
67931;BME280;63902;52.000;5.954;2023-03-07T11:23:12;99323.28;;;2.53;100.00
67931;BME280;63902;52.000;5.954;2023-03-07T11:24:20;99321.72;;;2.47;100.00
67931;BME280;63902;52.000;5.954;2023-03-07T11:25:23;99323.31;;;2.51;100.00
67931;BME280;63902;52.000;5.954;2023-03-07T11:26:25;99320.78;;;2.50;100.00
67931;BME280;63902;52.000;5.954;2023-03-07T11:27:32;99316.63;;;2.42;100.00
67931;BME280;63902;52.000;5.954;2023-03-07T11:28:34;99328.53;;;2.53;100.00
67931;BME280;63902;52.000;5.954;2023-03-07T11:29:34;99329.25;;;2.58;100.00
67931;BME280;63902;52.000;5.954;2023-03-07T11:30:42;99324.00;;;2.58;100.00
67931;BME280;63902;52.000;5.954;2023-03-07T11:31:51;99338.91;;;2.56;100.00
67931;BME280;63902;52.000;5.954;2023-03-07T11:33:05;99333.69;;;2.54;100.00
67931;BME280;63902;52.000;5.954;2023-03-07T11:34:13;99329.41;;;2.52;100.00
67931;BME280;63902;52.000;5.954;2023-03-07T11:35:19;99327.72;;;2.51;100.00
67931;BME280;63902;52.000;5.954;2023-03-07T11:36:27;99327.06;;;2.44;100.00
67931;BME280;63902;52.000;5.954;2023-03-07T11:37:32;99316.88;;;2.35;100.00
67931;BME280;63902;52.000;5.954;2023-03-07T11:38:40;99334.94;;;2.42;100.00
67931;BME280;63902;52.000;5.954;2023-03-07T11:39:46;99336.59;;;2.46;100.00
67931;BME280;63902;52.000;5.954;2023-03-07T11:40:57;99338.28;;;2.47;100.00
67931;BME280;63902;52.000;5.954;2023-03-07T11:42:03;99339.97;;;2.49;100.00
67931;BME280;63902;52.000;5.954;2023-03-07T11:43:15;99331.41;;;2.43;100.00
67931;BME280;63902;52.000;5.954;2023-03-07T11:44:27;99320.50;;;2.31;100.00
67931;BME280;63902;52.000;5.954;2023-03-07T11:45:33;99329.81;;;2.39;100.00
67931;BME280;63902;52.000;5.954;2023-03-07T11:46:46;99330.56;;;2.43;100.00
67931;BME280;63902;52.000;5.954;2023-03-07T11:47:58;99322.16;;;2.33;100.00
67931;BME280;63902;52.000;5.954;2023-03-07T11:49:10;99328.97;;;2.39;100.00
67931;BME280;63902;52.000;5.954;2023-03-07T11:50:20;99333.34;;;2.38;100.00
67931;BME280;63902;52.000;5.954;2023-03-07T11:51:31;99332.47;;;2.38;100.00
67931;BME280;63902;52.000;5.954;2023-03-07T11:52:48;99330.91;;;2.32;100.00
67931;BME280;63902;52.000;5.954;2023-03-07T11:54:02;99336.28;;;2.28;100.00
67931;BME280;63902;52.000;5.954;2023-03-07T11:55:19;99330.13;;;2.30;100.00
67931;BME280;63902;52.000;5.954;2023-03-07T11:56:28;99337.88;;;2.33;100.00
67931;BME280;63902;52.000;5.954;2023-03-07T11:57:41;99325.94;;;2.24;100.00
67931;BME280;63902;52.000;5.954;2023-03-07T11:58:59;99331.41;;;2.17;100.00
67931;BME280;63902;52.000;5.954;2023-03-07T12:00:19;99330.63;;;2.13;100.00
67931;BME280;63902;52.000;5.954;2023-03-07T12:01:28;99335.09;;;2.10;100.00
67931;BME280;63902;52.000;5.954;2023-03-07T12:02:41;99325.53;;;2.09;100.00
67931;BME280;63902;52.000;5.954;2023-03-07T12:04:25;99335.25;;;2.05;100.00
67931;BME280;63902;52.000;5.954;2023-03-07T12:05:37;99323.88;;;2.06;100.00
67931;BME280;63902;52.000;5.954;2023-03-07T12:06:47;99324.47;;;2.16;100.00
67931;BME280;63902;52.000;5.954;2023-03-07T12:08:03;99290.91;;;2.00;100.00
67931;BME280;63902;52.000;5.954;2023-03-07T12:09:24;99323.69;;;2.12;100.00
67931;BME280;63902;52.000;5.954;2023-03-07T12:10:33;99314.88;;;2.15;100.00
67931;BME280;63902;52.000;5.954;2023-03-07T12:11:50;99323.75;;;2.11;100.00
67931;BME280;63902;52.000;5.954;2023-03-07T12:13:10;99321.22;;;2.08;100.00
67931;BME280;63902;52.000;5.954;2023-03-07T12:14:19;99328.91;;;2.12;100.00
67931;BME280;63902;52.000;5.954;2023-03-07T12:15:27;99320.97;;;2.15;100.00
67931;BME280;63902;52.000;5.954;2023-03-07T12:16:37;99329.00;;;2.09;100.00
67931;BME280;63902;52.000;5.954;2023-03-07T12:17:49;99322.16;;;2.05;100.00
67931;BME280;63902;52.000;5.954;2023-03-07T12:19:11;99331.81;;;2.03;100.00
67931;BME280;63902;52.000;5.954;2023-03-07T12:20:30;99324.00;;;2.01;100.00
67931;BME280;63902;52.000;5.954;2023-03-07T12:22:00;99324.91;;;2.00;100.00
67931;BME280;63902;52.000;5.954;2023-03-07T12:23:14;99307.84;;;1.89;100.00
67931;BME280;63902;52.000;5.954;2023-03-07T12:24:17;99325.63;;;2.06;100.00
67931;BME280;63902;52.000;5.954;2023-03-07T12:25:24;99327.25;;;2.10;100.00
67931;BME280;63902;52.000;5.954;2023-03-07T12:26:32;99331.72;;;2.06;100.00
67931;BME280;63902;52.000;5.954;2023-03-07T12:27:35;99329.94;;;2.07;100.00
67931;BME280;63902;52.000;5.954;2023-03-07T12:28:43;99330.91;;;2.04;100.00
67931;BME280;63902;52.000;5.954;2023-03-07T12:29:48;99343.13;;;2.04;100.00
67931;BME280;63902;52.000;5.954;2023-03-07T12:30:56;99344.84;;;2.05;100.00
67931;BME280;63902;52.000;5.954;2023-03-07T12:31:59;99344.84;;;2.05;100.00
67931;BME280;63902;52.000;5.954;2023-03-07T12:33:03;99343.22;;;2.00;100.00
67931;BME280;63902;52.000;5.954;2023-03-07T12:34:08;99344.31;;;1.93;100.00
67931;BME280;63902;52.000;5.954;2023-03-07T12:35:20;99336.72;;;1.84;100.00
67931;BME280;63902;52.000;5.954;2023-03-07T12:36:26;99343.50;;;1.91;100.00
67931;BME280;63902;52.000;5.954;2023-03-07T12:37:33;99342.69;;;1.89;100.00
67931;BME280;63902;52.000;5.954;2023-03-07T12:38:39;99350.59;;;1.88;100.00